Terminal Aerodrome Forecast
Issued by NWS

Home | Current Version | Previous Version | Text Only | Print | Product List | Glossary On
Versions: 1 2 3 4 5 6 7 8 9 10 11 12 13 14 15 16 17 18 19 20
000
FTUS42 KGSP 070537
TAFHKY
TAF
KHKY 070537Z 0706/0806 VRB02KT 3SM BR SCT035
     FM070700 31003KT 2SM BR SCT003
      TEMPO 0707/0710 1/2SM FG BKN003
     FM071200 VRB02KT 4SM BR BKN035
     FM071500 VRB02KT P6SM SCT150
     FM072100 VRB02KT P6SM BKN040=

USA.gov is the U.S. government's official web portal to all federal, state and local government web resources and services.